Terminal Aerodrome Forecast
Issued by NWS Charleston, WV

Current Version | Previous Version | Text Only | Print | Product List | Glossary Off
Versions: 1 2 3 4 5 6 7 8 9 10 11 12 13 14 15 16 17 18 19 20 21 22 23

938
FTUS41 KRLX 231518 AAA
TAFHTS
TAF AMD
KHTS 231518Z 2315/2412 24007KT P6SM SCT050 BKN100
      TEMPO 2315/2316 BKN007
     FM231900 22007KT P6SM VCTS BKN050CB=

USA.gov is the U.S. government's official web portal to all federal, state and local government web resources and services.